sensor_id;sensor_type;location;lat;lon;timestamp;temperature;humidity
11136;DHT22;5622;50.840;4.948;2023-12-20T00:00:35;7.00;99.90
11136;DHT22;5622;50.840;4.948;2023-12-20T00:03:03;7.00;99.90
11136;DHT22;5622;50.840;4.948;2023-12-20T00:05:30;7.00;99.90
11136;DHT22;5622;50.840;4.948;2023-12-20T00:07:58;6.90;99.90
11136;DHT22;5622;50.840;4.948;2023-12-20T00:10:26;6.90;99.90
11136;DHT22;5622;50.840;4.948;2023-12-20T00:12:53;6.90;99.90
11136;DHT22;5622;50.840;4.948;2023-12-20T00:15:20;6.80;99.90
11136;DHT22;5622;50.840;4.948;2023-12-20T00:17:47;6.80;99.90
11136;DHT22;5622;50.840;4.948;2023-12-20T00:20:14;6.80;99.90
11136;DHT22;5622;50.840;4.948;2023-12-20T00:22:41;6.80;99.90
11136;DHT22;5622;50.840;4.948;2023-12-20T00:25:09;6.80;99.90
11136;DHT22;5622;50.840;4.948;2023-12-20T00:27:37;6.80;99.90
11136;DHT22;5622;50.840;4.948;2023-12-20T00:30:05;6.80;99.90
11136;DHT22;5622;50.840;4.948;2023-12-20T00:32:32;6.70;99.90
11136;DHT22;5622;50.840;4.948;2023-12-20T00:34:59;6.70;99.90
11136;DHT22;5622;50.840;4.948;2023-12-20T00:37:26;6.60;99.90
11136;DHT22;5622;50.840;4.948;2023-12-20T00:39:53;6.60;99.90
11136;DHT22;5622;50.840;4.948;2023-12-20T00:42:20;6.60;99.90
11136;DHT22;5622;50.840;4.948;2023-12-20T00:44:49;6.60;99.90
11136;DHT22;5622;50.840;4.948;2023-12-20T00:47:16;6.60;99.90
11136;DHT22;5622;50.840;4.948;2023-12-20T00:49:43;6.60;99.90
11136;DHT22;5622;50.840;4.948;2023-12-20T00:52:10;6.60;99.90
11136;DHT22;5622;50.840;4.948;2023-12-20T00:54:37;6.60;99.90
11136;DHT22;5622;50.840;4.948;2023-12-20T00:57:05;6.60;99.90
11136;DHT22;5622;50.840;4.948;2023-12-20T00:59:32;6.50;99.90
11136;DHT22;5622;50.840;4.948;2023-12-20T01:02:00;6.60;99.90
11136;DHT22;5622;50.840;4.948;2023-12-20T01:04:27;6.60;99.90
11136;DHT22;5622;50.840;4.948;2023-12-20T01:06:54;6.50;99.90
11136;DHT22;5622;50.840;4.948;2023-12-20T01:09:21;6.60;99.90
11136;DHT22;5622;50.840;4.948;2023-12-20T01:11:52;6.50;99.90
11136;DHT22;5622;50.840;4.948;2023-12-20T01:14:19;6.50;99.90
11136;DHT22;5622;50.840;4.948;2023-12-20T01:16:46;6.50;99.90
11136;DHT22;5622;50.840;4.948;2023-12-20T01:19:15;6.40;99.90
11136;DHT22;5622;50.840;4.948;2023-12-20T01:21:42;6.40;99.90
11136;DHT22;5622;50.840;4.948;2023-12-20T01:24:09;6.40;99.90
11136;DHT22;5622;50.840;4.948;2023-12-20T01:26:36;6.40;99.90
11136;DHT22;5622;50.840;4.948;2023-12-20T01:29:03;6.40;99.90
11136;DHT22;5622;50.840;4.948;2023-12-20T01:31:30;6.40;99.90
11136;DHT22;5622;50.840;4.948;2023-12-20T01:33:57;6.30;99.90
11136;DHT22;5622;50.840;4.948;2023-12-20T01:36:26;6.30;99.90
11136;DHT22;5622;50.840;4.948;2023-12-20T01:38:53;6.30;99.90
11136;DHT22;5622;50.840;4.948;2023-12-20T01:41:20;6.30;99.90
11136;DHT22;5622;50.840;4.948;2023-12-20T01:43:47;6.30;99.90
11136;DHT22;5622;50.840;4.948;2023-12-20T01:46:14;6.30;99.90
11136;DHT22;5622;50.840;4.948;2023-12-20T01:48:42;6.30;99.90
11136;DHT22;5622;50.840;4.948;2023-12-20T01:51:09;6.30;99.90
11136;DHT22;5622;50.840;4.948;2023-12-20T01:53:38;6.20;99.90
11136;DHT22;5622;50.840;4.948;2023-12-20T01:56:07;6.20;99.90
11136;DHT22;5622;50.840;4.948;2023-12-20T01:58:37;6.20;99.90
11136;DHT22;5622;50.840;4.948;2023-12-20T02:01:05;6.10;99.90
11136;DHT22;5622;50.840;4.948;2023-12-20T02:03:33;6.10;99.90
11136;DHT22;5622;50.840;4.948;2023-12-20T02:06:02;6.10;99.90
11136;DHT22;5622;50.840;4.948;2023-12-20T02:08:30;6.10;99.90
11136;DHT22;5622;50.840;4.948;2023-12-20T02:10:59;6.10;99.90
11136;DHT22;5622;50.840;4.948;2023-12-20T02:13:27;6.10;99.90
11136;DHT22;5622;50.840;4.948;2023-12-20T02:15:54;6.10;99.90
11136;DHT22;5622;50.840;4.948;2023-12-20T02:18:22;6.10;99.90
11136;DHT22;5622;50.840;4.948;2023-12-20T02:20:50;6.10;99.90
11136;DHT22;5622;50.840;4.948;2023-12-20T02:23:19;6.10;99.90
11136;DHT22;5622;50.840;4.948;2023-12-20T02:25:45;6.10;99.90
11136;DHT22;5622;50.840;4.948;2023-12-20T02:28:12;6.00;99.90
11136;DHT22;5622;50.840;4.948;2023-12-20T02:30:39;6.10;99.90
11136;DHT22;5622;50.840;4.948;2023-12-20T02:33:11;6.00;99.90
11136;DHT22;5622;50.840;4.948;2023-12-20T02:35:39;6.10;99.90
11136;DHT22;5622;50.840;4.948;2023-12-20T02:38:06;6.00;99.90
11136;DHT22;5622;50.840;4.948;2023-12-20T02:40:34;6.10;99.90
11136;DHT22;5622;50.840;4.948;2023-12-20T02:43:01;6.00;99.90
11136;DHT22;5622;50.840;4.948;2023-12-20T02:45:28;6.00;99.90
11136;DHT22;5622;50.840;4.948;2023-12-20T02:47:56;6.00;99.90
11136;DHT22;5622;50.840;4.948;2023-12-20T02:50:23;5.90;99.90
11136;DHT22;5622;50.840;4.948;2023-12-20T02:52:50;5.90;99.90
11136;DHT22;5622;50.840;4.948;2023-12-20T02:55:17;5.90;99.90
11136;DHT22;5622;50.840;4.948;2023-12-20T02:57:45;6.00;99.90
11136;DHT22;5622;50.840;4.948;2023-12-20T03:00:13;5.90;99.90
11136;DHT22;5622;50.840;4.948;2023-12-20T03:02:40;5.90;99.90
11136;DHT22;5622;50.840;4.948;2023-12-20T03:05:08;5.90;99.90
11136;DHT22;5622;50.840;4.948;2023-12-20T03:07:36;5.90;99.90
11136;DHT22;5622;50.840;4.948;2023-12-20T03:10:05;5.90;99.90
11136;DHT22;5622;50.840;4.948;2023-12-20T03:12:33;5.90;99.90
11136;DHT22;5622;50.840;4.948;2023-12-20T03:15:03;6.00;99.90
11136;DHT22;5622;50.840;4.948;2023-12-20T03:17:30;6.00;99.90
11136;DHT22;5622;50.840;4.948;2023-12-20T03:19:57;6.10;99.90
11136;DHT22;5622;50.840;4.948;2023-12-20T03:22:24;6.10;99.90
11136;DHT22;5622;50.840;4.948;2023-12-20T03:24:51;6.00;99.90
11136;DHT22;5622;50.840;4.948;2023-12-20T03:27:18;6.10;99.90
11136;DHT22;5622;50.840;4.948;2023-12-20T03:29:45;6.10;99.90
11136;DHT22;5622;50.840;4.948;2023-12-20T03:32:14;6.00;99.90
11136;DHT22;5622;50.840;4.948;2023-12-20T03:34:44;6.10;99.90
11136;DHT22;5622;50.840;4.948;2023-12-20T03:37:11;6.00;99.90
11136;DHT22;5622;50.840;4.948;2023-12-20T03:39:38;6.00;99.90
11136;DHT22;5622;50.840;4.948;2023-12-20T03:42:05;6.00;99.90
11136;DHT22;5622;50.840;4.948;2023-12-20T03:44:32;6.00;99.90
11136;DHT22;5622;50.840;4.948;2023-12-20T03:47:00;6.00;99.90
11136;DHT22;5622;50.840;4.948;2023-12-20T03:49:28;6.00;99.90
11136;DHT22;5622;50.840;4.948;2023-12-20T03:51:55;5.80;99.90
11136;DHT22;5622;50.840;4.948;2023-12-20T03:54:22;6.00;99.90
11136;DHT22;5622;50.840;4.948;2023-12-20T03:56:49;6.00;99.90
11136;DHT22;5622;50.840;4.948;2023-12-20T03:59:17;6.00;99.90
11136;DHT22;5622;50.840;4.948;2023-12-20T04:01:45;6.00;99.90
11136;DHT22;5622;50.840;4.948;2023-12-20T04:04:12;6.00;99.90
11136;DHT22;5622;50.840;4.948;2023-12-20T04:06:41;6.00;99.90
11136;DHT22;5622;50.840;4.948;2023-12-20T04:09:08;6.00;99.90
11136;DHT22;5622;50.840;4.948;2023-12-20T04:11:36;6.00;99.90
11136;DHT22;5622;50.840;4.948;2023-12-20T04:14:03;6.00;99.90
11136;DHT22;5622;50.840;4.948;2023-12-20T04:16:31;6.00;99.90
11136;DHT22;5622;50.840;4.948;2023-12-20T04:18:58;6.00;99.90
11136;DHT22;5622;50.840;4.948;2023-12-20T04:21:26;6.00;99.90
11136;DHT22;5622;50.840;4.948;2023-12-20T04:23:55;5.90;99.90
11136;DHT22;5622;50.840;4.948;2023-12-20T04:26:22;5.90;99.90
11136;DHT22;5622;50.840;4.948;2023-12-20T04:28:49;6.00;99.90
11136;DHT22;5622;50.840;4.948;2023-12-20T04:31:16;6.00;99.90
11136;DHT22;5622;50.840;4.948;2023-12-20T04:33:43;5.60;99.90
11136;DHT22;5622;50.840;4.948;2023-12-20T04:36:10;6.00;99.90
11136;DHT22;5622;50.840;4.948;2023-12-20T04:38:37;5.90;99.90
11136;DHT22;5622;50.840;4.948;2023-12-20T04:41:07;5.80;99.90
11136;DHT22;5622;50.840;4.948;2023-12-20T04:43:34;5.80;99.90
11136;DHT22;5622;50.840;4.948;2023-12-20T04:46:01;5.80;99.90
11136;DHT22;5622;50.840;4.948;2023-12-20T04:48:29;5.80;99.90
11136;DHT22;5622;50.840;4.948;2023-12-20T04:50:56;5.80;99.90
11136;DHT22;5622;50.840;4.948;2023-12-20T04:53:23;5.80;99.90
11136;DHT22;5622;50.840;4.948;2023-12-20T04:55:50;5.80;99.90
11136;DHT22;5622;50.840;4.948;2023-12-20T04:58:18;5.80;99.90
11136;DHT22;5622;50.840;4.948;2023-12-20T05:00:46;5.80;99.90
11136;DHT22;5622;50.840;4.948;2023-12-20T05:03:13;5.80;99.90
11136;DHT22;5622;50.840;4.948;2023-12-20T05:05:40;5.80;99.90
11136;DHT22;5622;50.840;4.948;2023-12-20T05:08:07;5.80;99.90
11136;DHT22;5622;50.840;4.948;2023-12-20T05:10:34;5.80;99.90
11136;DHT22;5622;50.840;4.948;2023-12-20T05:13:02;5.80;99.90
11136;DHT22;5622;50.840;4.948;2023-12-20T05:15:30;5.80;99.90
11136;DHT22;5622;50.840;4.948;2023-12-20T05:17:57;5.80;99.90
11136;DHT22;5622;50.840;4.948;2023-12-20T05:20:24;5.80;99.90
11136;DHT22;5622;50.840;4.948;2023-12-20T05:22:51;5.80;99.90
11136;DHT22;5622;50.840;4.948;2023-12-20T05:25:19;5.80;99.90
11136;DHT22;5622;50.840;4.948;2023-12-20T05:27:46;5.80;99.90
11136;DHT22;5622;50.840;4.948;2023-12-20T05:30:13;5.80;99.90
11136;DHT22;5622;50.840;4.948;2023-12-20T05:32:42;5.80;99.90
11136;DHT22;5622;50.840;4.948;2023-12-20T05:35:09;5.80;99.90
11136;DHT22;5622;50.840;4.948;2023-12-20T05:37:37;5.80;99.90
11136;DHT22;5622;50.840;4.948;2023-12-20T05:40:06;5.80;99.90
11136;DHT22;5622;50.840;4.948;2023-12-20T05:42:35;5.80;99.90
11136;DHT22;5622;50.840;4.948;2023-12-20T05:45:03;5.80;99.90
11136;DHT22;5622;50.840;4.948;2023-12-20T05:47:31;5.70;99.90
11136;DHT22;5622;50.840;4.948;2023-12-20T05:49:59;5.80;99.90
11136;DHT22;5622;50.840;4.948;2023-12-20T05:52:26;5.70;99.90
11136;DHT22;5622;50.840;4.948;2023-12-20T05:54:53;5.70;99.90
11136;DHT22;5622;50.840;4.948;2023-12-20T05:57:21;5.70;99.90
11136;DHT22;5622;50.840;4.948;2023-12-20T05:59:48;5.70;99.90
11136;DHT22;5622;50.840;4.948;2023-12-20T06:02:17;5.80;99.90
11136;DHT22;5622;50.840;4.948;2023-12-20T06:04:45;5.70;99.90
11136;DHT22;5622;50.840;4.948;2023-12-20T06:07:14;5.70;99.90
11136;DHT22;5622;50.840;4.948;2023-12-20T06:09:41;5.70;99.90
11136;DHT22;5622;50.840;4.948;2023-12-20T06:12:08;5.70;99.90
11136;DHT22;5622;50.840;4.948;2023-12-20T06:14:35;5.80;99.90
11136;DHT22;5622;50.840;4.948;2023-12-20T06:17:03;5.70;99.90
11136;DHT22;5622;50.840;4.948;2023-12-20T06:19:30;5.70;99.90
11136;DHT22;5622;50.840;4.948;2023-12-20T06:21:57;5.70;99.90
11136;DHT22;5622;50.840;4.948;2023-12-20T06:24:25;5.80;99.90
11136;DHT22;5622;50.840;4.948;2023-12-20T06:26:53;5.80;99.90
11136;DHT22;5622;50.840;4.948;2023-12-20T06:29:22;5.80;99.90
11136;DHT22;5622;50.840;4.948;2023-12-20T06:31:50;5.80;99.90
11136;DHT22;5622;50.840;4.948;2023-12-20T06:34:17;5.80;99.90
11136;DHT22;5622;50.840;4.948;2023-12-20T06:36:45;5.90;99.90
11136;DHT22;5622;50.840;4.948;2023-12-20T06:39:12;5.80;99.90
11136;DHT22;5622;50.840;4.948;2023-12-20T06:41:41;5.90;99.90
11136;DHT22;5622;50.840;4.948;2023-12-20T06:44:08;5.90;99.90
11136;DHT22;5622;50.840;4.948;2023-12-20T06:46:36;6.00;99.90
11136;DHT22;5622;50.840;4.948;2023-12-20T06:49:03;6.00;99.90
11136;DHT22;5622;50.840;4.948;2023-12-20T06:51:30;6.00;99.90
11136;DHT22;5622;50.840;4.948;2023-12-20T06:53:57;6.00;99.90
11136;DHT22;5622;50.840;4.948;2023-12-20T06:56:28;6.00;99.90
11136;DHT22;5622;50.840;4.948;2023-12-20T06:58:56;6.00;99.90
11136;DHT22;5622;50.840;4.948;2023-12-20T07:01:23;5.90;99.90
11136;DHT22;5622;50.840;4.948;2023-12-20T07:03:50;5.90;99.90
11136;DHT22;5622;50.840;4.948;2023-12-20T07:06:18;5.90;99.90
11136;DHT22;5622;50.840;4.948;2023-12-20T07:08:46;5.90;99.90
11136;DHT22;5622;50.840;4.948;2023-12-20T07:11:13;5.90;99.90
11136;DHT22;5622;50.840;4.948;2023-12-20T07:13:40;5.90;99.90
11136;DHT22;5622;50.840;4.948;2023-12-20T07:16:08;5.80;99.90
11136;DHT22;5622;50.840;4.948;2023-12-20T07:18:35;5.80;99.90
11136;DHT22;5622;50.840;4.948;2023-12-20T07:21:03;5.80;99.90
11136;DHT22;5622;50.840;4.948;2023-12-20T07:23:30;5.80;99.90
11136;DHT22;5622;50.840;4.948;2023-12-20T07:25:57;5.80;99.90
11136;DHT22;5622;50.840;4.948;2023-12-20T07:28:24;5.80;99.90
11136;DHT22;5622;50.840;4.948;2023-12-20T07:30:52;5.80;99.90
11136;DHT22;5622;50.840;4.948;2023-12-20T07:33:20;5.80;99.90
11136;DHT22;5622;50.840;4.948;2023-12-20T07:35:47;5.80;99.90
11136;DHT22;5622;50.840;4.948;2023-12-20T07:38:14;5.80;99.90
11136;DHT22;5622;50.840;4.948;2023-12-20T07:40:41;5.80;99.90
11136;DHT22;5622;50.840;4.948;2023-12-20T07:43:09;5.80;99.90
11136;DHT22;5622;50.840;4.948;2023-12-20T07:45:36;5.80;99.90
11136;DHT22;5622;50.840;4.948;2023-12-20T07:48:07;5.70;99.90
11136;DHT22;5622;50.840;4.948;2023-12-20T07:50:35;5.80;99.90
11136;DHT22;5622;50.840;4.948;2023-12-20T07:53:03;5.80;99.90
11136;DHT22;5622;50.840;4.948;2023-12-20T07:55:30;5.80;99.90
11136;DHT22;5622;50.840;4.948;2023-12-20T07:57:57;5.80;99.90
11136;DHT22;5622;50.840;4.948;2023-12-20T08:00:25;5.70;99.90
11136;DHT22;5622;50.840;4.948;2023-12-20T08:02:52;5.80;99.90
11136;DHT22;5622;50.840;4.948;2023-12-20T08:05:19;5.10;99.90
11136;DHT22;5622;50.840;4.948;2023-12-20T08:07:47;5.70;99.90
11136;DHT22;5622;50.840;4.948;2023-12-20T08:10:14;5.60;99.90
11136;DHT22;5622;50.840;4.948;2023-12-20T08:12:43;5.70;99.90
11136;DHT22;5622;50.840;4.948;2023-12-20T08:15:11;5.60;99.90
11136;DHT22;5622;50.840;4.948;2023-12-20T08:17:37;5.70;99.90
11136;DHT22;5622;50.840;4.948;2023-12-20T08:20:05;5.70;99.90
11136;DHT22;5622;50.840;4.948;2023-12-20T08:22:34;5.60;99.90
11136;DHT22;5622;50.840;4.948;2023-12-20T08:25:02;5.60;99.90
11136;DHT22;5622;50.840;4.948;2023-12-20T08:27:29;5.70;99.90
11136;DHT22;5622;50.840;4.948;2023-12-20T08:29:57;5.60;99.90
11136;DHT22;5622;50.840;4.948;2023-12-20T08:32:27;5.60;99.90
11136;DHT22;5622;50.840;4.948;2023-12-20T08:34:55;5.60;99.90
11136;DHT22;5622;50.840;4.948;2023-12-20T08:37:24;5.70;99.90
11136;DHT22;5622;50.840;4.948;2023-12-20T08:39:51;5.70;99.90
11136;DHT22;5622;50.840;4.948;2023-12-20T08:42:19;5.60;99.90
11136;DHT22;5622;50.840;4.948;2023-12-20T08:44:48;5.70;99.90
11136;DHT22;5622;50.840;4.948;2023-12-20T08:47:15;5.70;99.90
11136;DHT22;5622;50.840;4.948;2023-12-20T08:49:43;5.70;99.90
11136;DHT22;5622;50.840;4.948;2023-12-20T08:52:12;5.60;99.90
11136;DHT22;5622;50.840;4.948;2023-12-20T08:54:39;5.70;99.90
11136;DHT22;5622;50.840;4.948;2023-12-20T08:57:06;5.70;99.90
11136;DHT22;5622;50.840;4.948;2023-12-20T08:59:35;6.70;99.90
11136;DHT22;5622;50.840;4.948;2023-12-20T09:02:02;5.90;99.90
11136;DHT22;5622;50.840;4.948;2023-12-20T09:04:29;5.90;99.90
11136;DHT22;5622;50.840;4.948;2023-12-20T09:06:56;6.00;99.90
11136;DHT22;5622;50.840;4.948;2023-12-20T09:09:23;6.00;99.90
11136;DHT22;5622;50.840;4.948;2023-12-20T09:11:50;6.10;99.90
11136;DHT22;5622;50.840;4.948;2023-12-20T09:14:17;6.10;99.90
11136;DHT22;5622;50.840;4.948;2023-12-20T09:16:46;6.10;99.90
11136;DHT22;5622;50.840;4.948;2023-12-20T09:19:13;6.00;99.90
11136;DHT22;5622;50.840;4.948;2023-12-20T09:21:43;6.10;99.90
11136;DHT22;5622;50.840;4.948;2023-12-20T09:24:10;5.70;99.90
11136;DHT22;5622;50.840;4.948;2023-12-20T09:26:37;6.10;99.90
11136;DHT22;5622;50.840;4.948;2023-12-20T09:29:05;6.20;99.90
11136;DHT22;5622;50.840;4.948;2023-12-20T09:31:33;6.10;99.90
11136;DHT22;5622;50.840;4.948;2023-12-20T09:34:01;6.20;99.90
11136;DHT22;5622;50.840;4.948;2023-12-20T09:36:31;6.30;99.90
11136;DHT22;5622;50.840;4.948;2023-12-20T09:39:03;6.30;99.90
11136;DHT22;5622;50.840;4.948;2023-12-20T09:41:33;6.30;99.90
11136;DHT22;5622;50.840;4.948;2023-12-20T09:44:04;6.40;99.90
11136;DHT22;5622;50.840;4.948;2023-12-20T09:46:33;6.40;99.90
11136;DHT22;5622;50.840;4.948;2023-12-20T09:49:03;6.40;99.90
11136;DHT22;5622;50.840;4.948;2023-12-20T09:51:31;6.40;99.90
11136;DHT22;5622;50.840;4.948;2023-12-20T09:54:01;6.40;99.90
11136;DHT22;5622;50.840;4.948;2023-12-20T09:56:29;6.40;99.90
11136;DHT22;5622;50.840;4.948;2023-12-20T09:58:57;6.50;99.90
11136;DHT22;5622;50.840;4.948;2023-12-20T10:01:25;6.50;99.90
11136;DHT22;5622;50.840;4.948;2023-12-20T10:03:54;6.50;99.90
11136;DHT22;5622;50.840;4.948;2023-12-20T10:06:23;6.60;99.90
11136;DHT22;5622;50.840;4.948;2023-12-20T10:08:50;6.60;99.90
11136;DHT22;5622;50.840;4.948;2023-12-20T10:11:17;6.70;99.90
11136;DHT22;5622;50.840;4.948;2023-12-20T10:13:47;6.70;99.90
11136;DHT22;5622;50.840;4.948;2023-12-20T10:16:14;7.70;99.90
11136;DHT22;5622;50.840;4.948;2023-12-20T10:18:42;6.80;99.90
11136;DHT22;5622;50.840;4.948;2023-12-20T10:21:09;6.90;99.90
11136;DHT22;5622;50.840;4.948;2023-12-20T10:23:38;6.90;99.90
11136;DHT22;5622;50.840;4.948;2023-12-20T10:26:06;6.80;99.90
11136;DHT22;5622;50.840;4.948;2023-12-20T10:28:34;7.00;99.90
11136;DHT22;5622;50.840;4.948;2023-12-20T10:31:01;7.00;99.90
11136;DHT22;5622;50.840;4.948;2023-12-20T10:33:29;7.00;99.90
11136;DHT22;5622;50.840;4.948;2023-12-20T10:35:59;7.00;99.90
11136;DHT22;5622;50.840;4.948;2023-12-20T10:38:26;7.00;99.90
11136;DHT22;5622;50.840;4.948;2023-12-20T10:40:58;7.00;99.90
11136;DHT22;5622;50.840;4.948;2023-12-20T10:43:26;7.10;99.90
11136;DHT22;5622;50.840;4.948;2023-12-20T10:45:55;7.10;99.90
11136;DHT22;5622;50.840;4.948;2023-12-20T10:48:24;7.10;99.90
11136;DHT22;5622;50.840;4.948;2023-12-20T10:50:56;7.20;99.90
11136;DHT22;5622;50.840;4.948;2023-12-20T10:53:23;7.30;99.90
11136;DHT22;5622;50.840;4.948;2023-12-20T10:55:52;7.30;99.90
11136;DHT22;5622;50.840;4.948;2023-12-20T10:58:24;7.20;99.90
11136;DHT22;5622;50.840;4.948;2023-12-20T11:00:59;7.20;99.90
11136;DHT22;5622;50.840;4.948;2023-12-20T11:03:28;7.30;99.90
11136;DHT22;5622;50.840;4.948;2023-12-20T11:06:01;7.30;99.90
11136;DHT22;5622;50.840;4.948;2023-12-20T11:08:36;7.30;99.90
11136;DHT22;5622;50.840;4.948;2023-12-20T11:11:08;7.30;99.90
11136;DHT22;5622;50.840;4.948;2023-12-20T11:13:43;7.30;99.90
11136;DHT22;5622;50.840;4.948;2023-12-20T11:16:17;7.30;99.90
11136;DHT22;5622;50.840;4.948;2023-12-20T11:18:45;7.30;99.90
11136;DHT22;5622;50.840;4.948;2023-12-20T11:21:12;7.30;99.90
11136;DHT22;5622;50.840;4.948;2023-12-20T11:23:42;7.40;99.90
11136;DHT22;5622;50.840;4.948;2023-12-20T11:26:09;7.40;99.90
11136;DHT22;5622;50.840;4.948;2023-12-20T11:28:36;7.40;99.90
11136;DHT22;5622;50.840;4.948;2023-12-20T11:31:05;7.50;99.90
11136;DHT22;5622;50.840;4.948;2023-12-20T11:33:36;7.40;99.90
11136;DHT22;5622;50.840;4.948;2023-12-20T11:36:13;7.50;99.90
11136;DHT22;5622;50.840;4.948;2023-12-20T11:38:53;7.50;99.90
11136;DHT22;5622;50.840;4.948;2023-12-20T11:41:22;7.50;99.90
11136;DHT22;5622;50.840;4.948;2023-12-20T11:43:53;7.50;99.90
11136;DHT22;5622;50.840;4.948;2023-12-20T11:46:22;7.20;99.90
11136;DHT22;5622;50.840;4.948;2023-12-20T11:48:49;7.50;99.90
11136;DHT22;5622;50.840;4.948;2023-12-20T11:51:17;7.50;99.90
11136;DHT22;5622;50.840;4.948;2023-12-20T11:53:44;7.60;99.90
11136;DHT22;5622;50.840;4.948;2023-12-20T11:56:11;7.60;99.90
11136;DHT22;5622;50.840;4.948;2023-12-20T11:58:39;7.60;99.90
11136;DHT22;5622;50.840;4.948;2023-12-20T12:01:08;7.70;99.90
11136;DHT22;5622;50.840;4.948;2023-12-20T12:03:37;7.60;99.90
11136;DHT22;5622;50.840;4.948;2023-12-20T12:06:05;7.70;99.90
11136;DHT22;5622;50.840;4.948;2023-12-20T12:08:33;7.70;99.90
11136;DHT22;5622;50.840;4.948;2023-12-20T12:11:00;7.70;99.90
11136;DHT22;5622;50.840;4.948;2023-12-20T12:13:28;7.70;99.90
11136;DHT22;5622;50.840;4.948;2023-12-20T12:15:55;7.80;99.90
11136;DHT22;5622;50.840;4.948;2023-12-20T12:18:22;7.80;99.90
11136;DHT22;5622;50.840;4.948;2023-12-20T12:21:00;7.90;99.90
11136;DHT22;5622;50.840;4.948;2023-12-20T12:23:27;7.90;99.90
11136;DHT22;5622;50.840;4.948;2023-12-20T12:25:55;7.90;99.90
11136;DHT22;5622;50.840;4.948;2023-12-20T12:28:26;8.00;99.90
11136;DHT22;5622;50.840;4.948;2023-12-20T12:30:57;8.00;99.90
11136;DHT22;5622;50.840;4.948;2023-12-20T12:33:24;8.00;99.90
11136;DHT22;5622;50.840;4.948;2023-12-20T12:35:53;8.00;99.90
11136;DHT22;5622;50.840;4.948;2023-12-20T12:38:22;8.00;99.90
11136;DHT22;5622;50.840;4.948;2023-12-20T12:40:51;8.00;99.90
11136;DHT22;5622;50.840;4.948;2023-12-20T12:43:19;8.00;99.90
11136;DHT22;5622;50.840;4.948;2023-12-20T12:45:46;8.00;99.90
11136;DHT22;5622;50.840;4.948;2023-12-20T12:48:13;7.60;99.90
11136;DHT22;5622;50.840;4.948;2023-12-20T12:50:41;8.00;99.90
11136;DHT22;5622;50.840;4.948;2023-12-20T12:53:09;8.00;99.90
11136;DHT22;5622;50.840;4.948;2023-12-20T12:55:36;7.90;99.90
11136;DHT22;5622;50.840;4.948;2023-12-20T12:58:03;8.00;99.90
11136;DHT22;5622;50.840;4.948;2023-12-20T13:00:31;7.90;99.90
11136;DHT22;5622;50.840;4.948;2023-12-20T13:03:00;7.90;99.90
11136;DHT22;5622;50.840;4.948;2023-12-20T13:05:27;7.90;99.90
11136;DHT22;5622;50.840;4.948;2023-12-20T13:07:55;7.90;99.90
11136;DHT22;5622;50.840;4.948;2023-12-20T13:10:24;7.90;99.90
11136;DHT22;5622;50.840;4.948;2023-12-20T13:12:51;7.70;99.90
11136;DHT22;5622;50.840;4.948;2023-12-20T13:15:18;7.80;99.90
11136;DHT22;5622;50.840;4.948;2023-12-20T13:17:45;7.80;99.90
11136;DHT22;5622;50.840;4.948;2023-12-20T13:20:12;7.80;99.90
11136;DHT22;5622;50.840;4.948;2023-12-20T13:22:39;7.80;99.90
11136;DHT22;5622;50.840;4.948;2023-12-20T13:25:07;7.80;99.90
11136;DHT22;5622;50.840;4.948;2023-12-20T13:27:35;7.80;99.90
11136;DHT22;5622;50.840;4.948;2023-12-20T13:30:03;7.90;99.90
11136;DHT22;5622;50.840;4.948;2023-12-20T13:32:31;7.80;99.90
11136;DHT22;5622;50.840;4.948;2023-12-20T13:35:01;7.90;99.90
11136;DHT22;5622;50.840;4.948;2023-12-20T13:37:29;7.90;99.90
11136;DHT22;5622;50.840;4.948;2023-12-20T13:39:57;7.90;99.90
11136;DHT22;5622;50.840;4.948;2023-12-20T13:42:24;7.90;99.90
11136;DHT22;5622;50.840;4.948;2023-12-20T13:44:54;7.90;99.90
11136;DHT22;5622;50.840;4.948;2023-12-20T13:47:21;7.90;99.90
11136;DHT22;5622;50.840;4.948;2023-12-20T13:49:48;7.90;99.90
11136;DHT22;5622;50.840;4.948;2023-12-20T13:52:15;7.90;99.90
11136;DHT22;5622;50.840;4.948;2023-12-20T13:54:42;7.90;99.90
11136;DHT22;5622;50.840;4.948;2023-12-20T13:57:09;7.90;99.90
11136;DHT22;5622;50.840;4.948;2023-12-20T13:59:36;7.90;99.90
11136;DHT22;5622;50.840;4.948;2023-12-20T14:02:05;7.90;99.90
11136;DHT22;5622;50.840;4.948;2023-12-20T14:04:32;7.90;99.90
11136;DHT22;5622;50.840;4.948;2023-12-20T14:07:00;7.90;99.90
11136;DHT22;5622;50.840;4.948;2023-12-20T14:09:27;7.80;99.90
11136;DHT22;5622;50.840;4.948;2023-12-20T14:11:54;7.90;99.90
11136;DHT22;5622;50.840;4.948;2023-12-20T14:14:21;7.90;99.90
11136;DHT22;5622;50.840;4.948;2023-12-20T14:16:48;7.90;99.90
11136;DHT22;5622;50.840;4.948;2023-12-20T14:19:18;7.90;99.90
11136;DHT22;5622;50.840;4.948;2023-12-20T14:21:45;7.90;99.90
11136;DHT22;5622;50.840;4.948;2023-12-20T14:24:13;8.00;99.90
11136;DHT22;5622;50.840;4.948;2023-12-20T14:26:42;7.90;99.90
11136;DHT22;5622;50.840;4.948;2023-12-20T14:29:09;7.90;99.90
11136;DHT22;5622;50.840;4.948;2023-12-20T14:31:36;8.00;99.90
11136;DHT22;5622;50.840;4.948;2023-12-20T14:34:04;7.90;99.90
11136;DHT22;5622;50.840;4.948;2023-12-20T14:36:34;8.00;99.90
11136;DHT22;5622;50.840;4.948;2023-12-20T14:39:01;8.00;99.90
11136;DHT22;5622;50.840;4.948;2023-12-20T14:41:29;8.00;99.90
11136;DHT22;5622;50.840;4.948;2023-12-20T14:43:56;8.00;99.90
11136;DHT22;5622;50.840;4.948;2023-12-20T14:46:23;8.00;99.90
11136;DHT22;5622;50.840;4.948;2023-12-20T14:48:50;8.00;99.90
11136;DHT22;5622;50.840;4.948;2023-12-20T14:51:17;8.10;99.90
11136;DHT22;5622;50.840;4.948;2023-12-20T14:53:45;8.20;99.90
11136;DHT22;5622;50.840;4.948;2023-12-20T14:56:13;8.20;99.90
11136;DHT22;5622;50.840;4.948;2023-12-20T14:58:40;8.20;99.90
11136;DHT22;5622;50.840;4.948;2023-12-20T15:01:07;8.20;99.90
11136;DHT22;5622;50.840;4.948;2023-12-20T15:03:34;8.20;99.90
11136;DHT22;5622;50.840;4.948;2023-12-20T15:06:01;8.30;99.90
11136;DHT22;5622;50.840;4.948;2023-12-20T15:08:28;8.30;99.90
11136;DHT22;5622;50.840;4.948;2023-12-20T15:10:58;8.20;99.90
11136;DHT22;5622;50.840;4.948;2023-12-20T15:13:25;8.30;99.90
11136;DHT22;5622;50.840;4.948;2023-12-20T15:15:52;8.30;99.90
11136;DHT22;5622;50.840;4.948;2023-12-20T15:18:19;8.30;99.90
11136;DHT22;5622;50.840;4.948;2023-12-20T15:20:46;8.30;99.90
11136;DHT22;5622;50.840;4.948;2023-12-20T15:23:13;8.20;99.90
11136;DHT22;5622;50.840;4.948;2023-12-20T15:25:40;8.30;99.90
11136;DHT22;5622;50.840;4.948;2023-12-20T15:28:09;8.30;99.90
11136;DHT22;5622;50.840;4.948;2023-12-20T15:30:36;8.20;99.90
11136;DHT22;5622;50.840;4.948;2023-12-20T15:33:04;8.30;99.90
11136;DHT22;5622;50.840;4.948;2023-12-20T15:35:37;8.30;99.90
11136;DHT22;5622;50.840;4.948;2023-12-20T15:38:04;8.30;99.90
11136;DHT22;5622;50.840;4.948;2023-12-20T15:40:32;8.30;99.90
11136;DHT22;5622;50.840;4.948;2023-12-20T15:42:59;8.30;99.90
11136;DHT22;5622;50.840;4.948;2023-12-20T15:45:29;8.40;99.90
11136;DHT22;5622;50.840;4.948;2023-12-20T15:47:56;8.30;99.90
11136;DHT22;5622;50.840;4.948;2023-12-20T15:50:23;8.40;99.90
11136;DHT22;5622;50.840;4.948;2023-12-20T15:52:51;8.40;99.90
11136;DHT22;5622;50.840;4.948;2023-12-20T15:55:18;8.30;99.90
11136;DHT22;5622;50.840;4.948;2023-12-20T15:57:45;8.40;99.90
11136;DHT22;5622;50.840;4.948;2023-12-20T16:00:16;8.40;99.90
11136;DHT22;5622;50.840;4.948;2023-12-20T16:02:45;8.40;99.90
11136;DHT22;5622;50.840;4.948;2023-12-20T16:05:12;8.40;99.90